createdAt,value
2017-08-10T00:02:22.058Z,17.87
2017-08-10T00:04:49.522Z,20.35
2017-08-10T00:07:16.974Z,18.30
2017-08-10T00:09:44.430Z,18.15
2017-08-10T00:12:11.894Z,19.37
2017-08-10T00:14:39.327Z,19.12
2017-08-10T00:17:06.800Z,18.40
2017-08-10T00:19:34.245Z,19.08
2017-08-10T00:22:01.672Z,19.67
2017-08-10T00:24:29.114Z,20.20
2017-08-10T00:26:57.345Z,20.40
2017-08-10T00:29:24.786Z,21.20
2017-08-10T00:31:52.250Z,20.00
2017-08-10T00:34:19.719Z,22.27
2017-08-10T00:36:47.153Z,20.58
2017-08-10T00:39:14.607Z,21.42
2017-08-10T00:41:42.083Z,21.30
2017-08-10T00:44:09.532Z,20.50
2017-08-10T00:46:37.006Z,19.70
2017-08-10T00:49:04.555Z,21.90
2017-08-10T00:51:31.986Z,22.37
2017-08-10T00:53:59.466Z,21.58
2017-08-10T00:56:26.916Z,25.10
2017-08-10T00:58:54.478Z,25.10
2017-08-10T01:01:21.933Z,25.10
2017-08-10T01:03:49.391Z,24.67
2017-08-10T01:06:16.840Z,24.05
2017-08-10T01:08:44.275Z,23.38
2017-08-10T01:11:11.764Z,23.70
2017-08-10T01:13:39.219Z,22.90
2017-08-10T01:16:06.675Z,23.62
2017-08-10T01:18:34.130Z,24.08
2017-08-10T01:21:01.579Z,25.30
2017-08-10T01:23:29.043Z,26.05
2017-08-10T01:25:56.474Z,29.40
2017-08-10T01:28:23.963Z,27.60
2017-08-10T01:30:51.411Z,23.70
2017-08-10T01:33:18.959Z,25.80
2017-08-10T01:35:46.372Z,26.03
2017-08-10T01:38:14.586Z,26.83
2017-08-10T01:40:42.064Z,24.10
2017-08-10T01:43:09.521Z,24.60
2017-08-10T01:45:36.960Z,25.90
2017-08-10T01:48:04.394Z,24.20
2017-08-10T01:50:31.878Z,25.12
2017-08-10T01:52:59.326Z,24.67
2017-08-10T01:55:26.780Z,24.20
2017-08-10T01:57:54.215Z,25.70
2017-08-10T02:00:21.652Z,24.95
2017-08-10T02:02:49.852Z,25.58
2017-08-10T02:05:17.291Z,24.90
2017-08-10T02:07:44.803Z,24.50
2017-08-10T02:10:12.242Z,24.53
2017-08-10T02:12:39.823Z,26.37
2017-08-10T02:15:07.267Z,24.55
2017-08-10T02:17:34.703Z,24.60
2017-08-10T02:20:02.177Z,23.70
2017-08-10T02:22:29.622Z,24.73
2017-08-10T02:24:57.066Z,25.88
2017-08-10T02:27:24.514Z,24.65
2017-08-10T02:29:51.965Z,23.20
2017-08-10T02:32:19.461Z,24.65
2017-08-10T02:34:46.927Z,25.05
2017-08-10T02:37:14.362Z,24.85
2017-08-10T02:39:41.830Z,23.12
2017-08-10T02:42:09.282Z,24.33
2017-08-10T02:44:36.721Z,23.27
2017-08-10T02:47:04.210Z,25.17
2017-08-10T02:49:31.639Z,24.52
2017-08-10T02:51:59.102Z,25.25
2017-08-10T02:54:26.543Z,24.27
2017-08-10T02:56:54.018Z,25.23
2017-08-10T02:59:21.448Z,22.80
2017-08-10T03:01:48.951Z,24.33
2017-08-10T03:04:16.371Z,22.27
2017-08-10T03:06:43.846Z,23.77
2017-08-10T03:09:11.294Z,22.48
2017-08-10T03:11:38.766Z,24.70
2017-08-10T03:14:06.202Z,22.45
2017-08-10T03:16:33.678Z,22.75
2017-08-10T03:19:01.210Z,25.45
2017-08-10T03:21:28.657Z,22.83
2017-08-10T03:23:56.151Z,23.35
2017-08-10T03:26:23.594Z,23.40
2017-08-10T03:28:51.061Z,22.75
2017-08-10T03:31:18.491Z,22.33
2017-08-10T03:33:45.962Z,23.30
2017-08-10T03:36:13.422Z,23.00
2017-08-10T03:38:40.867Z,23.30
2017-08-10T03:41:08.315Z,22.20
2017-08-10T03:43:35.803Z,21.92
2017-08-10T03:46:03.261Z,23.45
2017-08-10T03:48:30.701Z,21.97
2017-08-10T03:50:58.178Z,22.95
2017-08-10T03:53:25.622Z,22.30
2017-08-10T03:55:53.066Z,22.13
2017-08-10T03:58:20.508Z,22.58
2017-08-10T04:00:47.970Z,22.02
2017-08-10T04:03:15.441Z,22.90
2017-08-10T04:05:42.882Z,22.27
2017-08-10T04:08:10.358Z,22.27
2017-08-10T04:10:37.895Z,22.87
2017-08-10T04:13:05.370Z,20.83
2017-08-10T04:15:32.803Z,19.30
2017-08-10T04:18:00.290Z,20.35
2017-08-10T04:20:27.730Z,21.50
2017-08-10T04:22:55.346Z,21.23
2017-08-10T04:25:22.986Z,20.70
2017-08-10T04:27:50.546Z,23.62
2017-08-10T04:30:17.970Z,22.40
2017-08-10T04:32:45.411Z,21.70
2017-08-10T04:35:12.895Z,21.27
2017-08-10T04:37:40.343Z,22.17
2017-08-10T04:40:07.790Z,24.37
2017-08-10T04:42:35.287Z,23.90
2017-08-10T04:45:02.816Z,23.75
2017-08-10T04:47:30.270Z,22.30
2017-08-10T04:49:57.742Z,23.55
2017-08-10T04:52:25.282Z,22.63
2017-08-10T04:54:52.735Z,23.15
2017-08-10T04:57:20.198Z,22.33
2017-08-10T04:59:47.627Z,24.77
2017-08-10T05:02:15.074Z,21.55
2017-08-10T05:04:42.506Z,20.50
2017-08-10T05:07:10.740Z,21.58
2017-08-10T05:09:38.205Z,20.65
2017-08-10T05:12:05.635Z,20.00
2017-08-10T05:14:33.070Z,19.20
2017-08-10T05:17:00.589Z,19.62
2017-08-10T05:19:28.022Z,18.25
2017-08-10T05:21:55.517Z,18.10
2017-08-10T05:24:23.099Z,18.02
2017-08-10T05:26:50.551Z,18.92
2017-08-10T05:29:18.002Z,18.20
2017-08-10T05:31:46.203Z,17.30
2017-08-10T05:34:13.657Z,16.40
2017-08-10T05:36:41.130Z,16.40
2017-08-10T05:39:08.613Z,15.70
2017-08-10T05:41:36.150Z,16.33
2017-08-10T05:44:03.623Z,16.52
2017-08-10T05:46:31.062Z,15.13
2017-08-10T05:48:58.615Z,14.27
2017-08-10T05:51:26.063Z,13.30
2017-08-10T05:53:53.534Z,12.70
2017-08-10T05:56:20.973Z,11.77
2017-08-10T05:58:48.457Z,12.15
2017-08-10T06:01:15.971Z,11.80
2017-08-10T06:03:43.412Z,11.03
2017-08-10T06:06:11.621Z,11.80
2017-08-10T06:08:39.053Z,11.40
2017-08-10T06:11:06.555Z,10.75
2017-08-10T06:13:34.011Z,10.60
2017-08-10T06:16:01.447Z,11.70
2017-08-10T06:18:28.913Z,10.10
2017-08-10T06:20:56.344Z,9.30
2017-08-10T06:23:23.794Z,7.37
2017-08-10T06:25:51.282Z,7.72
2017-08-10T06:28:18.747Z,7.80
2017-08-10T06:30:46.166Z,7.90
2017-08-10T06:33:13.636Z,6.40
2017-08-10T06:35:41.119Z,6.73
2017-08-10T06:38:11.390Z,7.35
2017-08-10T06:40:39.102Z,6.03
2017-08-10T06:43:06.739Z,7.20
2017-08-10T06:45:34.313Z,6.20
2017-08-10T06:48:01.738Z,6.78
2017-08-10T06:50:29.234Z,7.53
2017-08-10T06:52:56.667Z,7.28
2017-08-10T06:55:24.134Z,7.05
2017-08-10T06:57:51.579Z,6.00
2017-08-10T07:00:19.054Z,5.15
2017-08-10T07:02:46.522Z,6.25
2017-08-10T07:05:13.938Z,5.23
2017-08-10T07:07:41.436Z,8.63
2017-08-10T07:10:08.878Z,5.30
2017-08-10T07:12:36.297Z,5.45
2017-08-10T07:15:03.874Z,6.10
2017-08-10T07:17:31.342Z,8.57
2017-08-10T07:19:58.785Z,7.20
2017-08-10T07:22:26.232Z,5.20
2017-08-10T07:24:53.719Z,6.30
2017-08-10T07:27:21.146Z,5.43
2017-08-10T07:29:48.595Z,6.60
2017-08-10T07:32:16.088Z,7.97
2017-08-10T07:34:43.523Z,6.43
2017-08-10T07:37:11.004Z,5.55
2017-08-10T07:39:38.440Z,5.85
2017-08-10T07:42:05.903Z,5.80
2017-08-10T07:44:33.346Z,9.85
2017-08-10T07:47:00.778Z,7.78
2017-08-10T07:49:28.218Z,5.43
2017-08-10T07:51:56.459Z,5.43
2017-08-10T07:54:23.915Z,8.32
2017-08-10T07:56:51.374Z,8.65
2017-08-10T07:59:18.818Z,6.00
2017-08-10T08:01:46.248Z,6.57
2017-08-10T08:04:13.682Z,5.22
2017-08-10T08:06:41.992Z,6.85
2017-08-10T08:09:09.653Z,6.15
2017-08-10T08:11:37.072Z,6.87
2017-08-10T08:14:05.310Z,6.75
2017-08-10T08:16:32.763Z,4.30
2017-08-10T08:19:00.223Z,4.95
2017-08-10T08:21:27.665Z,4.30
2017-08-10T08:23:55.118Z,7.87
2017-08-10T08:26:22.564Z,5.60
2017-08-10T08:28:50.034Z,6.70
2017-08-10T08:31:17.463Z,7.32
2017-08-10T08:33:44.938Z,4.10
2017-08-10T08:36:12.491Z,4.15
2017-08-10T08:38:40.095Z,4.20
2017-08-10T08:41:07.622Z,4.18
2017-08-10T08:43:35.067Z,4.93
2017-08-10T08:46:02.562Z,5.30
2017-08-10T08:48:30.818Z,4.70
2017-08-10T08:50:58.265Z,4.87
2017-08-10T08:53:25.712Z,5.25
2017-08-10T08:55:53.191Z,4.80
2017-08-10T08:58:20.643Z,4.78
2017-08-10T09:00:48.187Z,4.30
2017-08-10T09:03:15.650Z,4.72
2017-08-10T09:05:43.082Z,4.37
2017-08-10T09:08:10.521Z,5.97
2017-08-10T09:10:38.022Z,4.75
2017-08-10T09:13:05.484Z,4.72
2017-08-10T09:15:33.698Z,6.57
2017-08-10T09:18:01.944Z,4.90
2017-08-10T09:20:29.395Z,4.55
2017-08-10T09:22:56.838Z,3.53
2017-08-10T09:25:24.263Z,3.63
2017-08-10T09:27:51.854Z,5.30
2017-08-10T09:30:19.330Z,4.30
2017-08-10T09:32:46.754Z,3.72
2017-08-10T09:35:14.191Z,4.20
2017-08-10T09:37:41.698Z,3.60
2017-08-10T09:40:09.146Z,4.12
2017-08-10T09:42:36.582Z,3.30
2017-08-10T09:45:04.236Z,4.70
2017-08-10T09:47:31.692Z,4.70
2017-08-10T09:49:59.251Z,4.57
2017-08-10T09:52:26.734Z,4.45
2017-08-10T09:54:54.165Z,3.55
2017-08-10T09:57:21.602Z,3.53
2017-08-10T09:59:49.810Z,3.72
2017-08-10T10:02:17.279Z,4.07
2017-08-10T10:04:44.717Z,3.87
2017-08-10T10:07:12.191Z,3.08
2017-08-10T10:09:39.624Z,3.60
2017-08-10T10:12:07.104Z,3.80
2017-08-10T10:14:34.530Z,3.10
2017-08-10T10:17:01.983Z,3.78
2017-08-10T10:19:29.461Z,4.93
2017-08-10T10:21:56.895Z,3.08
2017-08-10T10:24:24.328Z,3.33
2017-08-10T10:26:52.514Z,2.33
2017-08-10T10:29:20.191Z,2.75
2017-08-10T10:31:47.622Z,3.17
2017-08-10T10:34:15.051Z,3.58
2017-08-10T10:36:42.560Z,3.50
2017-08-10T10:39:10.014Z,3.83
2017-08-10T10:41:37.496Z,4.23
2017-08-10T10:44:05.132Z,3.87
2017-08-10T10:46:32.551Z,4.62
2017-08-10T10:49:00.793Z,3.45
2017-08-10T10:51:28.321Z,2.37
2017-08-10T10:53:55.748Z,2.53
2017-08-10T10:56:23.178Z,4.50
2017-08-10T10:58:50.622Z,3.17
2017-08-10T11:01:18.047Z,3.20
2017-08-10T11:03:45.510Z,4.62
2017-08-10T11:06:13.074Z,3.75
2017-08-10T11:08:40.617Z,3.80
2017-08-10T11:11:08.114Z,3.70
2017-08-10T11:13:35.554Z,3.83
2017-08-10T11:16:02.998Z,4.22
2017-08-10T11:18:30.443Z,4.30
2017-08-10T11:20:57.904Z,3.47
2017-08-10T11:23:25.372Z,5.00
2017-08-10T11:25:52.834Z,3.97
2017-08-10T11:28:20.267Z,3.03
2017-08-10T11:30:47.742Z,4.10
2017-08-10T11:33:15.181Z,5.32
2017-08-10T11:35:42.635Z,3.75
2017-08-10T11:38:10.108Z,3.80
2017-08-10T11:40:37.565Z,5.50
2017-08-10T11:43:05.069Z,4.47
2017-08-10T11:45:33.266Z,3.67
2017-08-10T11:48:00.704Z,4.00
2017-08-10T11:50:29.026Z,4.03
2017-08-10T11:52:56.463Z,4.82
2017-08-10T11:55:23.903Z,4.40
2017-08-10T11:57:51.394Z,6.50
2017-08-10T12:00:18.827Z,3.60
2017-08-10T12:02:46.311Z,4.07
2017-08-10T12:05:13.734Z,5.87
2017-08-10T12:07:41.178Z,5.33
2017-08-10T12:10:09.392Z,4.97
2017-08-10T12:12:36.836Z,3.97
2017-08-10T12:15:04.371Z,4.20
2017-08-10T12:17:31.867Z,4.35
2017-08-10T12:19:59.308Z,5.95
2017-08-10T12:22:26.765Z,6.28
2017-08-10T12:24:54.324Z,6.10
2017-08-10T12:27:21.726Z,6.60
2017-08-10T12:29:49.971Z,7.00
2017-08-10T12:32:17.403Z,7.75
2017-08-10T12:34:45.071Z,6.78
2017-08-10T12:37:12.631Z,7.00
2017-08-10T12:39:40.062Z,8.07
2017-08-10T12:42:07.569Z,6.22
2017-08-10T12:44:35.005Z,6.40
2017-08-10T12:47:02.657Z,7.28
2017-08-10T12:49:30.221Z,5.75
2017-08-10T12:51:57.662Z,6.53
2017-08-10T12:54:25.095Z,7.72
2017-08-10T12:56:53.286Z,5.68
2017-08-10T12:59:20.860Z,6.20
2017-08-10T13:01:48.270Z,5.82
2017-08-10T13:04:16.454Z,5.70
2017-08-10T13:06:44.674Z,7.40
2017-08-10T13:09:12.144Z,6.00
2017-08-10T13:11:39.586Z,5.78
2017-08-10T13:14:07.052Z,7.22
2017-08-10T13:16:34.502Z,5.43
2017-08-10T13:19:01.971Z,5.55
2017-08-10T13:21:29.396Z,6.00
2017-08-10T13:23:56.843Z,6.03
2017-08-10T13:26:24.326Z,7.10
2017-08-10T13:28:51.876Z,5.87
2017-08-10T13:31:19.441Z,5.20
2017-08-10T13:33:46.914Z,6.95
2017-08-10T13:36:14.357Z,4.97
2017-08-10T13:38:41.823Z,5.47
2017-08-10T13:41:09.248Z,4.68
2017-08-10T13:43:36.674Z,5.83
2017-08-10T13:46:04.987Z,4.68
2017-08-10T13:48:32.549Z,4.30
2017-08-10T13:50:59.958Z,4.70
2017-08-10T13:53:28.177Z,3.95
2017-08-10T13:55:55.642Z,4.05
2017-08-10T13:58:23.126Z,4.35
2017-08-10T14:00:50.680Z,6.50
2017-08-10T14:03:18.114Z,5.07
2017-08-10T14:05:45.662Z,6.47
2017-08-10T14:08:13.068Z,4.03
2017-08-10T14:10:41.318Z,4.20
2017-08-10T14:13:08.751Z,4.35
2017-08-10T14:15:36.227Z,5.10
2017-08-10T14:18:03.665Z,4.07
2017-08-10T14:20:31.110Z,5.70
2017-08-10T14:22:58.587Z,6.15
2017-08-10T14:25:26.042Z,5.10
2017-08-10T14:27:53.507Z,5.00
2017-08-10T14:30:20.949Z,4.47
2017-08-10T14:32:48.379Z,4.55
2017-08-10T14:35:16.161Z,5.10
2017-08-10T14:37:44.149Z,8.65
2017-08-10T14:40:12.381Z,6.53
2017-08-10T14:42:39.924Z,6.47
2017-08-10T14:45:07.359Z,7.80
2017-08-10T14:47:34.896Z,6.80
2017-08-10T14:50:02.458Z,5.00
2017-08-10T14:52:29.927Z,5.40
2017-08-10T14:54:57.367Z,5.15
2017-08-10T14:57:24.905Z,5.00
2017-08-10T14:59:52.382Z,9.57
2017-08-10T15:02:19.842Z,6.35
2017-08-10T15:04:47.892Z,6.18
2017-08-10T15:07:15.860Z,7.40
2017-08-10T15:09:43.429Z,8.30
2017-08-10T15:12:10.986Z,7.40
2017-08-10T15:14:38.446Z,5.82
2017-08-10T15:17:05.908Z,6.33
2017-08-10T15:19:33.451Z,5.32
2017-08-10T15:22:00.862Z,4.30
2017-08-10T15:24:29.306Z,5.45
2017-08-10T15:26:56.754Z,6.57
2017-08-10T15:29:24.214Z,5.85
2017-08-10T15:31:51.647Z,5.65
2017-08-10T15:34:19.210Z,4.78
2017-08-10T15:36:46.674Z,5.62
2017-08-10T15:39:14.135Z,5.18
2017-08-10T15:41:41.591Z,4.47
2017-08-10T15:44:09.026Z,4.05
2017-08-10T15:46:36.501Z,5.65
2017-08-10T15:49:03.946Z,4.62
2017-08-10T15:51:31.432Z,4.22
2017-08-10T15:53:58.960Z,5.80
2017-08-10T15:56:26.452Z,5.50
2017-08-10T15:58:53.960Z,6.87
2017-08-10T16:01:21.451Z,6.78
2017-08-10T16:03:48.883Z,8.73
2017-08-10T16:06:16.365Z,5.60
2017-08-10T16:08:43.898Z,7.00
2017-08-10T16:11:11.372Z,7.55
2017-08-10T16:13:38.804Z,7.23
2017-08-10T16:16:06.306Z,5.65
2017-08-10T16:18:33.835Z,4.72
2017-08-10T16:21:01.417Z,6.47
2017-08-10T16:23:28.834Z,5.40
2017-08-10T16:25:56.275Z,5.72
2017-08-10T16:28:23.770Z,6.50
2017-08-10T16:30:51.255Z,4.43
2017-08-10T16:33:18.836Z,4.22
2017-08-10T16:35:46.458Z,6.00
2017-08-10T16:38:13.910Z,4.87
2017-08-10T16:40:41.448Z,4.93
2017-08-10T16:43:08.922Z,4.30
2017-08-10T16:45:36.382Z,6.37
2017-08-10T16:48:04.862Z,5.23
2017-08-10T16:50:32.295Z,4.65
2017-08-10T16:52:59.755Z,3.72
2017-08-10T16:55:27.247Z,5.03
2017-08-10T16:57:54.688Z,4.03
2017-08-10T17:00:22.225Z,5.68
2017-08-10T17:02:49.639Z,4.70
2017-08-10T17:05:17.901Z,4.95
2017-08-10T17:07:45.414Z,5.45
2017-08-10T17:10:12.887Z,6.78
2017-08-10T17:12:40.344Z,5.80
2017-08-10T17:15:07.789Z,6.40
2017-08-10T17:17:35.251Z,6.37
2017-08-10T17:20:02.797Z,4.80
2017-08-10T17:22:30.272Z,5.00
2017-08-10T17:24:57.747Z,4.60
2017-08-10T17:27:25.178Z,4.30
2017-08-10T17:29:52.621Z,8.03
2017-08-10T17:32:20.161Z,4.90
2017-08-10T17:34:47.630Z,3.73
2017-08-10T17:37:15.078Z,3.67
2017-08-10T17:39:42.548Z,4.22
2017-08-10T17:42:10.026Z,6.43
2017-08-10T17:44:37.482Z,3.97
2017-08-10T17:47:04.937Z,4.30
2017-08-10T17:49:32.379Z,6.60
2017-08-10T17:51:59.810Z,4.03
2017-08-10T17:54:27.302Z,5.35
2017-08-10T17:56:54.733Z,4.72
2017-08-10T17:59:22.166Z,5.87
2017-08-10T18:01:49.683Z,6.12
2017-08-10T18:04:17.107Z,5.55
2017-08-10T18:06:44.599Z,3.65
2017-08-10T18:09:12.026Z,5.80
2017-08-10T18:11:39.449Z,5.10
2017-08-10T18:14:07.678Z,6.10
2017-08-10T18:16:35.114Z,5.35
2017-08-10T18:19:02.583Z,4.93
2017-08-10T18:21:30.043Z,6.47
2017-08-10T18:23:57.636Z,6.82
2017-08-10T18:26:25.154Z,6.45
2017-08-10T18:28:52.626Z,4.95
2017-08-10T18:31:20.167Z,6.35
2017-08-10T18:33:47.618Z,5.65
2017-08-10T18:36:15.079Z,5.55
2017-08-10T18:38:42.641Z,7.15
2017-08-10T18:41:10.070Z,5.87
2017-08-10T18:43:37.506Z,6.55
2017-08-10T18:46:04.944Z,6.53
2017-08-10T18:48:32.474Z,6.40
2017-08-10T18:50:59.910Z,6.18
2017-08-10T18:53:27.358Z,7.82
2017-08-10T18:55:54.822Z,5.03
2017-08-10T18:58:22.266Z,7.82
2017-08-10T19:00:49.731Z,8.10
2017-08-10T19:03:17.194Z,5.67
2017-08-10T19:05:44.635Z,5.62
2017-08-10T19:08:12.073Z,5.07
2017-08-10T19:10:40.306Z,5.30
2017-08-10T19:13:07.746Z,5.75
2017-08-10T19:15:35.282Z,4.62
2017-08-10T19:18:02.707Z,6.47
2017-08-10T19:20:30.947Z,6.87
2017-08-10T19:22:58.390Z,7.65
2017-08-10T19:25:25.834Z,6.28
2017-08-10T19:27:53.267Z,7.60
2017-08-10T19:30:20.762Z,6.03
2017-08-10T19:32:48.211Z,4.40
2017-08-10T19:35:15.719Z,6.82
2017-08-10T19:37:43.949Z,5.45
2017-08-10T19:40:11.515Z,5.10
2017-08-10T19:42:38.969Z,7.30
2017-08-10T19:45:06.522Z,8.00
2017-08-10T19:47:33.958Z,7.22
2017-08-10T19:50:01.438Z,7.30
2017-08-10T19:52:28.890Z,5.45
2017-08-10T19:54:56.322Z,6.53
2017-08-10T19:57:23.770Z,7.65
2017-08-10T19:59:51.266Z,6.47
2017-08-10T20:02:18.720Z,6.30
2017-08-10T20:04:46.178Z,6.07
2017-08-10T20:07:13.637Z,5.37
2017-08-10T20:09:41.115Z,7.68
2017-08-10T20:12:08.624Z,8.27
2017-08-10T20:14:36.066Z,7.28
2017-08-10T20:17:03.533Z,8.25
2017-08-10T20:19:31.014Z,5.53
2017-08-10T20:21:58.485Z,6.03
2017-08-10T20:24:25.928Z,6.62
2017-08-10T20:26:53.371Z,7.70
2017-08-10T20:29:20.807Z,7.90
2017-08-10T20:31:48.245Z,7.82
2017-08-10T20:34:16.451Z,5.90
2017-08-10T20:36:44.026Z,5.68
2017-08-10T20:39:11.464Z,6.90
2017-08-10T20:41:38.898Z,5.90
2017-08-10T20:44:06.342Z,5.75
2017-08-10T20:46:34.566Z,7.40
2017-08-10T20:49:02.025Z,7.15
2017-08-10T20:51:29.459Z,9.05
2017-08-10T20:53:56.914Z,7.00
2017-08-10T20:56:24.411Z,4.57
2017-08-10T20:58:51.826Z,6.70
2017-08-10T21:01:19.314Z,6.60
2017-08-10T21:03:46.762Z,9.13
2017-08-10T21:06:14.194Z,7.22
2017-08-10T21:08:41.631Z,5.77
2017-08-10T21:11:09.074Z,7.90
2017-08-10T21:13:36.605Z,5.93
2017-08-10T21:16:04.046Z,8.02
2017-08-10T21:18:31.498Z,8.68
2017-08-10T21:20:58.958Z,8.00
2017-08-10T21:23:26.618Z,6.78
2017-08-10T21:25:54.197Z,8.80
2017-08-10T21:28:21.734Z,6.80
2017-08-10T21:30:49.163Z,6.10
2017-08-10T21:33:16.642Z,6.37
2017-08-10T21:35:44.082Z,5.43
2017-08-10T21:38:11.574Z,7.60
2017-08-10T21:40:39.022Z,5.80
2017-08-10T21:43:06.515Z,7.20
2017-08-10T21:45:34.059Z,5.50
2017-08-10T21:48:01.494Z,7.60
2017-08-10T21:50:28.941Z,5.90
2017-08-10T21:52:56.499Z,5.40
2017-08-10T21:55:23.966Z,5.10
2017-08-10T21:57:51.389Z,8.30
2017-08-10T22:00:18.870Z,5.10
2017-08-10T22:02:46.311Z,7.60
2017-08-10T22:05:13.741Z,7.18
2017-08-10T22:07:41.182Z,7.65
2017-08-10T22:10:09.402Z,10.13
2017-08-10T22:12:37.050Z,6.85
2017-08-10T22:15:04.477Z,7.05
2017-08-10T22:17:32.694Z,7.12
2017-08-10T22:20:00.166Z,7.45
2017-08-10T22:22:27.718Z,6.25
2017-08-10T22:24:56.085Z,8.32
2017-08-10T22:27:24.387Z,7.95
2017-08-10T22:29:51.830Z,6.78
2017-08-10T22:32:19.270Z,6.32
2017-08-10T22:34:46.735Z,6.78
2017-08-10T22:37:14.165Z,8.60
2017-08-10T22:39:41.597Z,8.20
2017-08-10T22:42:09.826Z,6.28
2017-08-10T22:44:37.299Z,9.63
2017-08-10T22:47:04.735Z,6.72
2017-08-10T22:49:32.198Z,6.55
2017-08-10T22:51:59.666Z,8.75
2017-08-10T22:54:27.107Z,6.65
2017-08-10T22:56:54.561Z,6.55
2017-08-10T22:59:21.989Z,7.70
2017-08-10T23:01:49.418Z,6.45
2017-08-10T23:04:17.658Z,7.62
2017-08-10T23:06:45.113Z,9.48
2017-08-10T23:09:12.554Z,6.62
2017-08-10T23:11:39.974Z,7.30
2017-08-10T23:14:07.483Z,10.63
2017-08-10T23:16:35.018Z,9.00
2017-08-10T23:19:02.493Z,6.83
2017-08-10T23:21:29.946Z,6.87
2017-08-10T23:23:57.396Z,6.18
2017-08-10T23:26:24.818Z,8.90
2017-08-10T23:28:52.300Z,7.45
2017-08-10T23:31:19.793Z,8.02
2017-08-10T23:33:47.321Z,5.47
2017-08-10T23:36:14.746Z,8.50
2017-08-10T23:38:42.190Z,5.40
2017-08-10T23:41:10.419Z,6.40
2017-08-10T23:43:37.970Z,10.50
2017-08-10T23:46:05.430Z,7.47
2017-08-10T23:48:32.866Z,7.57
2017-08-10T23:51:00.460Z,6.70
2017-08-10T23:53:27.886Z,7.60
2017-08-10T23:55:55.362Z,6.43
2017-08-10T23:58:22.821Z,7.35
